首页
METAR-TAF:

METAR-TAF

机场 :

寧波櫟社國際機場

宁波市, 中华人民共和国

纬度: 29-49-36N, 经度: 121-27-43E, 海拔: 4米

当前天气观测

该预报发布于56分钟前的19:00 UTC
风速6节,风向,在北转西北东北之间变化
温度 5°C
湿度 100%
气压 1027 hPa
能見度: 6000
散云层高于700英尺
多云层高于1600英尺
阴天层高于5000英尺
小雨

METAR: ZSNB 151900Z 36003MPS 330V040 6000 -RA SCT007 BKN016 OVC050 05/05 Q1027 NOSIG

时间: 03:56 (19:56 UTC)

预报

该预报发布于5小时和27分钟前的14:29 UTC
预报有效从15日的 18点(UTC)到 16日的 18点(UTC)
风速8节,风向
能見度: 3000
散云层高于600英尺
多云层高于2000英尺
小雨, 轻雾
短暂存在
从 16日的 06点(UTC)到 16日的 12点(UTC)
能見度: 2500
小雨, 雪

TAF: ZSNB 151429Z 1518/1618 36004MPS 3000 -RA BR SCT006 BKN020 TX05/1518Z TN02/1612Z TEMPO 1606/1612 2500 -RASN

超过4000个机场的气象观测和天气预报(METAR&TAF报告)。

可查询的气象台以黄色和红色小点在地图上表示。

将鼠标移到小点上方,可查看气象台名称。

然后点击查看天气观测和预报。

如需切换地图:点击带黑十字的绿色按钮放大地图;点击带横线的绿色按钮缩小地图;或者点击绿色箭头查看邻近地区的地图。


METAR-TAF: